Time,TemperatureF,DewpointF,PressureIn,WindDirection,WindDirectionDegrees,WindSpeedMPH,WindSpeedGustMPH,Humidity,HourlyPrecipIn,Conditions,Clouds,dailyrainin,SoftwareType,DateUTC
2013-02-23 00:21:00,29.0,13.0,30.25,WSW,240,2.0,2.0,50,0.00,,,-99.99,,2013-02-23 08:21:00,
2013-02-23 00:31:00,29.0,13.0,30.25,WSW,240,2.0,2.0,50,0.00,,,-99.99,,2013-02-23 08:31:00,
2013-02-23 01:21:00,34.0,13.0,30.21,SW,230,2.0,2.0,42,0.00,,,-99.99,,2013-02-23 09:21:00,
2013-02-23 01:31:00,34.0,13.0,30.21,SW,230,2.0,2.0,42,0.00,,,-99.99,,2013-02-23 09:31:00,
2013-02-23 02:21:00,31.0,15.0,30.19,SW,230,2.0,3.0,50,0.00,,,-99.99,,2013-02-23 10:21:00,
2013-02-23 02:31:00,31.0,15.0,30.19,SW,230,2.0,3.0,50,0.00,,,-99.99,,2013-02-23 10:31:00,
2013-02-23 03:21:00,31.0,15.0,30.17,SW,230,2.0,2.0,50,0.00,,,-99.99,,2013-02-23 11:21:00,
2013-02-23 03:32:00,31.0,15.0,30.17,SW,230,2.0,2.0,50,0.00,,,-99.99,,2013-02-23 11:32:00,
2013-02-23 04:21:00,35.0,14.0,30.14,WSW,240,1.0,2.0,42,0.00,,,-99.99,,2013-02-23 12:21:00,
2013-02-23 04:32:00,35.0,14.0,30.14,WSW,240,1.0,2.0,42,0.00,,,-99.99,,2013-02-23 12:32:00,
2013-02-23 05:22:00,34.0,13.0,30.13,North,0,0.0,6.0,42,0.00,,,-99.99,,2013-02-23 13:22:00,
2013-02-23 05:32:00,34.0,13.0,30.13,North,0,0.0,6.0,42,0.00,,,-99.99,,2013-02-23 13:32:00,
2013-02-23 06:21:00,34.0,13.0,30.11,West,270,1.0,6.0,42,0.00,,,-99.99,,2013-02-23 14:21:00,
2013-02-23 06:32:00,34.0,13.0,30.11,West,270,1.0,6.0,42,0.00,,,-99.99,,2013-02-23 14:32:00,
2013-02-23 07:21:00,37.0,13.0,30.09,West,280,3.0,5.0,37,0.00,,,-99.99,,2013-02-23 15:21:00,
2013-02-23 07:31:00,37.0,13.0,30.09,West,280,3.0,5.0,37,0.00,,,-99.99,,2013-02-23 15:31:00,
2013-02-23 08:21:00,38.0,9.0,30.10,WSW,240,4.0,9.0,30,0.00,,,-99.99,,2013-02-23 16:21:00,
2013-02-23 08:31:00,38.0,9.0,30.10,WSW,240,4.0,9.0,30,0.00,,,-99.99,,2013-02-23 16:31:00,
2013-02-23 08:42:00,38.0,9.0,30.10,WSW,240,4.0,9.0,30,0.00,,,-99.99,,2013-02-23 16:42:00,
2013-02-23 09:21:00,42.0,18.0,30.10,SW,220,1.0,6.0,38,0.00,,,-99.99,,2013-02-23 17:21:00,
2013-02-23 09:31:00,42.0,18.0,30.10,SW,220,1.0,6.0,38,0.00,,,-99.99,,2013-02-23 17:31:00,
2013-02-23 09:41:00,42.0,18.0,30.10,SW,220,1.0,6.0,38,0.00,,,-99.99,,2013-02-23 17:41:00,
2013-02-23 10:21:00,45.0,16.0,30.08,SW,230,1.0,11.0,31,0.00,,,-99.99,,2013-02-23 18:21:00,
2013-02-23 10:31:00,45.0,16.0,30.08,SW,230,1.0,11.0,31,0.00,,,-99.99,,2013-02-23 18:31:00,
2013-02-23 10:41:00,45.0,16.0,30.08,SW,230,1.0,11.0,31,0.00,,,-99.99,,2013-02-23 18:41:00,
2013-02-23 11:21:00,44.0,12.0,30.05,West,260,2.0,10.0,27,0.02,,,-99.99,,2013-02-23 19:21:00,
2013-02-23 11:32:00,44.0,12.0,30.05,West,260,2.0,10.0,27,0.02,,,-99.99,,2013-02-23 19:32:00,
2013-02-23 11:41:00,44.0,12.0,30.05,West,260,2.0,10.0,27,0.02,,,-99.99,,2013-02-23 19:41:00,
2013-02-23 12:21:00,44.0,14.0,30.02,SW,230,6.0,10.0,29,0.00,,,-99.99,,2013-02-23 20:21:00,
2013-02-23 12:31:00,44.0,14.0,30.02,SW,230,6.0,10.0,29,0.00,,,-99.99,,2013-02-23 20:31:00,
2013-02-23 12:41:00,44.0,14.0,30.02,SW,230,6.0,10.0,29,0.00,,,-99.99,,2013-02-23 20:41:00,
2013-02-23 13:22:00,46.0,8.0,29.98,SSE,160,2.0,13.0,21,0.00,,,-99.99,,2013-02-23 21:22:00,
2013-02-23 13:31:00,46.0,8.0,29.98,SSE,160,2.0,13.0,21,0.00,,,-99.99,,2013-02-23 21:31:00,
2013-02-23 13:41:00,46.0,8.0,29.98,SSE,160,2.0,13.0,21,0.00,,,-99.99,,2013-02-23 21:41:00,
2013-02-23 14:21:00,47.0,9.0,29.94,SW,220,2.0,-999.0,21,0.00,,,-99.99,,2013-02-23 22:21:00,
2013-02-23 14:31:00,47.0,9.0,29.94,SW,220,2.0,-999.0,21,0.00,,,-99.99,,2013-02-23 22:31:00,
2013-02-23 14:41:00,47.0,9.0,29.94,SW,220,2.0,-999.0,21,0.00,,,-99.99,,2013-02-23 22:41:00,
2013-02-23 15:21:00,46.0,6.0,29.91,SW,220,5.0,8.0,19,0.00,,,-99.99,,2013-02-23 23:21:00,
2013-02-23 15:31:00,46.0,6.0,29.91,SW,220,5.0,8.0,19,0.00,,,-99.99,,2013-02-23 23:31:00,
2013-02-23 15:41:00,46.0,6.0,29.91,SW,220,5.0,8.0,19,0.00,,,-99.99,,2013-02-23 23:41:00,
2013-02-23 16:22:00,44.0,8.0,29.90,ENE,70,1.0,7.0,22,0.00,,,-99.99,,2013-02-24 00:22:00,
2013-02-23 16:32:00,44.0,8.0,29.90,ENE,70,1.0,7.0,22,0.00,,,-99.99,,2013-02-24 00:32:00,
2013-02-23 16:42:00,44.0,8.0,29.90,ENE,70,1.0,7.0,22,0.00,,,-99.99,,2013-02-24 00:42:00,
2013-02-23 17:22:00,40.0,15.0,29.87,West,260,3.0,8.0,36,0.00,,,-99.99,,2013-02-24 01:22:00,
2013-02-23 17:31:00,40.0,15.0,29.87,West,260,3.0,8.0,36,0.00,,,-99.99,,2013-02-24 01:31:00,
2013-02-23 17:41:00,40.0,15.0,29.87,West,260,3.0,8.0,36,0.00,,,-99.99,,2013-02-24 01:41:00,
2013-02-23 18:21:00,36.0,18.0,29.86,WSW,240,2.0,7.0,47,0.00,,,-99.99,,2013-02-24 02:21:00,
2013-02-23 18:32:00,36.0,18.0,29.86,WSW,240,2.0,7.0,47,0.00,,,-99.99,,2013-02-24 02:32:00,
2013-02-23 18:41:00,36.0,18.0,29.86,WSW,240,2.0,7.0,47,0.00,,,-99.99,,2013-02-24 02:41:00,
2013-02-23 19:21:00,31.0,23.0,29.88,West,280,1.0,6.0,71,0.00,,,-99.99,,2013-02-24 03:21:00,
2013-02-23 19:31:00,31.0,23.0,29.88,West,280,1.0,6.0,71,0.00,,,-99.99,,2013-02-24 03:31:00,
2013-02-23 19:42:00,31.0,23.0,29.88,West,280,1.0,6.0,71,0.00,,,-99.99,,2013-02-24 03:42:00,
2013-02-23 20:21:00,28.0,20.0,29.92,NE,40,2.0,7.0,71,0.00,,,-99.99,,2013-02-24 04:21:00,
2013-02-23 20:31:00,28.0,20.0,29.92,NE,40,2.0,7.0,71,0.00,,,-99.99,,2013-02-24 04:31:00,
2013-02-23 20:41:00,28.0,20.0,29.92,NE,40,2.0,7.0,71,0.00,,,-99.99,,2013-02-24 04:41:00,
2013-02-23 21:22:00,26.0,18.0,29.94,North,-999,0.0,0.0,72,0.00,,,-99.99,,2013-02-24 05:22:00,
2013-02-23 21:32:00,26.0,18.0,29.94,North,-999,0.0,0.0,72,0.00,,,-99.99,,2013-02-24 05:32:00,
2013-02-23 21:42:00,26.0,18.0,29.94,North,-999,0.0,0.0,72,0.00,,,-99.99,,2013-02-24 05:42:00,
2013-02-23 22:21:00,26.0,21.0,29.94,North,0,0.0,2.0,81,0.00,,,-99.99,,2013-02-24 06:21:00,
2013-02-23 22:31:00,26.0,21.0,29.94,North,0,0.0,2.0,81,0.00,,,-99.99,,2013-02-24 06:31:00,
2013-02-23 22:41:00,26.0,21.0,29.94,North,0,0.0,2.0,81,0.00,,,-99.99,,2013-02-24 06:41:00,
2013-02-23 23:21:00,25.0,18.0,29.96,NNE,30,5.0,9.0,74,0.00,,,-99.99,,2013-02-24 07:21:00,
2013-02-23 23:31:00,25.0,18.0,29.96,NNE,30,5.0,9.0,74,0.00,,,-99.99,,2013-02-24 07:31:00,
2013-02-23 23:41:00,25.0,18.0,29.96,NNE,30,5.0,9.0,74,0.00,,,-99.99,,2013-02-24 07:41:00,